sensor_id;sensor_type;location;lat;lon;timestamp;P1;durP1;ratioP1;P2;durP2;ratioP2
62582;SDS011;48641;51.676;5.808;2023-01-29T00:01:02;6.82;;;3.17;;
62582;SDS011;48641;51.676;5.808;2023-01-29T00:03:28;9.70;;;3.33;;
62582;SDS011;48641;51.676;5.808;2023-01-29T00:05:54;9.48;;;3.33;;
62582;SDS011;48641;51.676;5.808;2023-01-29T00:08:20;7.40;;;2.95;;
62582;SDS011;48641;51.676;5.808;2023-01-29T00:10:45;7.50;;;3.00;;
62582;SDS011;48641;51.676;5.808;2023-01-29T00:13:11;8.55;;;3.30;;
62582;SDS011;48641;51.676;5.808;2023-01-29T00:15:37;8.27;;;3.67;;
62582;SDS011;48641;51.676;5.808;2023-01-29T00:18:03;7.20;;;3.22;;
62582;SDS011;48641;51.676;5.808;2023-01-29T00:20:29;9.13;;;3.42;;
62582;SDS011;48641;51.676;5.808;2023-01-29T00:22:55;7.85;;;3.72;;
62582;SDS011;48641;51.676;5.808;2023-01-29T00:25:20;7.97;;;3.40;;
62582;SDS011;48641;51.676;5.808;2023-01-29T00:27:46;8.30;;;3.30;;
62582;SDS011;48641;51.676;5.808;2023-01-29T00:30:12;7.28;;;3.15;;
62582;SDS011;48641;51.676;5.808;2023-01-29T00:32:43;8.02;;;3.35;;
62582;SDS011;48641;51.676;5.808;2023-01-29T00:35:09;8.45;;;3.55;;
62582;SDS011;48641;51.676;5.808;2023-01-29T00:37:35;6.50;;;3.22;;
62582;SDS011;48641;51.676;5.808;2023-01-29T00:40:02;8.02;;;3.53;;
62582;SDS011;48641;51.676;5.808;2023-01-29T00:42:28;8.20;;;3.58;;
62582;SDS011;48641;51.676;5.808;2023-01-29T00:45:13;7.60;;;3.22;;
62582;SDS011;48641;51.676;5.808;2023-01-29T00:47:39;8.73;;;3.50;;
62582;SDS011;48641;51.676;5.808;2023-01-29T00:50:05;7.40;;;3.28;;
62582;SDS011;48641;51.676;5.808;2023-01-29T00:52:34;8.10;;;3.63;;
62582;SDS011;48641;51.676;5.808;2023-01-29T00:55:05;8.55;;;3.30;;
62582;SDS011;48641;51.676;5.808;2023-01-29T00:57:32;7.68;;;3.25;;
62582;SDS011;48641;51.676;5.808;2023-01-29T00:59:59;8.60;;;3.45;;
62582;SDS011;48641;51.676;5.808;2023-01-29T01:02:26;8.25;;;3.80;;
62582;SDS011;48641;51.676;5.808;2023-01-29T01:05:11;7.82;;;3.20;;
62582;SDS011;48641;51.676;5.808;2023-01-29T01:07:42;6.70;;;2.80;;
62582;SDS011;48641;51.676;5.808;2023-01-29T01:10:13;7.85;;;3.60;;
62582;SDS011;48641;51.676;5.808;2023-01-29T01:13:04;7.63;;;3.50;;
62582;SDS011;48641;51.676;5.808;2023-01-29T01:15:35;7.95;;;3.65;;
62582;SDS011;48641;51.676;5.808;2023-01-29T01:18:03;7.97;;;3.30;;
62582;SDS011;48641;51.676;5.808;2023-01-29T01:20:29;6.93;;;3.10;;
62582;SDS011;48641;51.676;5.808;2023-01-29T01:22:56;7.93;;;3.70;;
62582;SDS011;48641;51.676;5.808;2023-01-29T01:25:22;7.45;;;3.40;;
62582;SDS011;48641;51.676;5.808;2023-01-29T01:27:53;9.52;;;3.67;;
62582;SDS011;48641;51.676;5.808;2023-01-29T01:30:19;8.57;;;3.13;;
62582;SDS011;48641;51.676;5.808;2023-01-29T01:32:46;7.68;;;3.20;;
62582;SDS011;48641;51.676;5.808;2023-01-29T01:35:12;7.20;;;3.35;;
62582;SDS011;48641;51.676;5.808;2023-01-29T01:37:39;7.15;;;3.70;;
62582;SDS011;48641;51.676;5.808;2023-01-29T01:40:05;8.02;;;3.50;;
62582;SDS011;48641;51.676;5.808;2023-01-29T01:42:42;7.55;;;3.67;;
62582;SDS011;48641;51.676;5.808;2023-01-29T01:45:17;8.18;;;3.45;;
62582;SDS011;48641;51.676;5.808;2023-01-29T01:48:22;7.65;;;2.92;;
62582;SDS011;48641;51.676;5.808;2023-01-29T01:53:17;7.05;;;3.08;;
62582;SDS011;48641;51.676;5.808;2023-01-29T01:55:59;7.78;;;3.10;;
62582;SDS011;48641;51.676;5.808;2023-01-29T01:58:39;8.07;;;3.28;;
62582;SDS011;48641;51.676;5.808;2023-01-29T02:01:11;7.63;;;3.38;;
62582;SDS011;48641;51.676;5.808;2023-01-29T02:03:39;8.05;;;3.58;;
62582;SDS011;48641;51.676;5.808;2023-01-29T02:06:29;7.45;;;3.40;;
62582;SDS011;48641;51.676;5.808;2023-01-29T02:09:19;7.60;;;3.10;;
62582;SDS011;48641;51.676;5.808;2023-01-29T02:12:02;8.18;;;3.42;;
62582;SDS011;48641;51.676;5.808;2023-01-29T02:14:30;7.57;;;3.20;;
62582;SDS011;48641;51.676;5.808;2023-01-29T02:16:59;7.23;;;3.37;;
62582;SDS011;48641;51.676;5.808;2023-01-29T02:24:57;7.50;;;3.40;;
62582;SDS011;48641;51.676;5.808;2023-01-29T02:30:40;7.35;;;3.33;;
62582;SDS011;48641;51.676;5.808;2023-01-29T02:33:30;7.95;;;3.50;;
62582;SDS011;48641;51.676;5.808;2023-01-29T02:36:26;7.78;;;3.13;;
62582;SDS011;48641;51.676;5.808;2023-01-29T02:42:03;6.78;;;2.90;;
62582;SDS011;48641;51.676;5.808;2023-01-29T02:47:43;7.63;;;3.22;;
62582;SDS011;48641;51.676;5.808;2023-01-29T02:50:40;7.57;;;3.08;;
62582;SDS011;48641;51.676;5.808;2023-01-29T02:53:17;7.63;;;3.13;;
62582;SDS011;48641;51.676;5.808;2023-01-29T02:56:08;7.13;;;2.97;;
62582;SDS011;48641;51.676;5.808;2023-01-29T02:58:40;7.75;;;3.35;;
62582;SDS011;48641;51.676;5.808;2023-01-29T03:01:14;8.05;;;3.50;;
62582;SDS011;48641;51.676;5.808;2023-01-29T03:03:48;8.30;;;3.30;;
62582;SDS011;48641;51.676;5.808;2023-01-29T03:08:55;7.60;;;2.88;;
62582;SDS011;48641;51.676;5.808;2023-01-29T03:11:22;7.85;;;3.13;;
62582;SDS011;48641;51.676;5.808;2023-01-29T03:13:55;7.53;;;3.13;;
62582;SDS011;48641;51.676;5.808;2023-01-29T03:16:30;7.50;;;3.13;;
62582;SDS011;48641;51.676;5.808;2023-01-29T03:21:32;7.07;;;3.08;;
62582;SDS011;48641;51.676;5.808;2023-01-29T03:24:34;7.45;;;3.40;;
62582;SDS011;48641;51.676;5.808;2023-01-29T03:28:06;7.13;;;3.38;;
62582;SDS011;48641;51.676;5.808;2023-01-29T03:30:37;6.93;;;3.13;;
62582;SDS011;48641;51.676;5.808;2023-01-29T03:33:25;7.45;;;3.15;;
62582;SDS011;48641;51.676;5.808;2023-01-29T03:36:00;7.55;;;3.08;;
62582;SDS011;48641;51.676;5.808;2023-01-29T03:38:31;7.40;;;3.00;;
62582;SDS011;48641;51.676;5.808;2023-01-29T03:41:03;7.75;;;3.10;;
62582;SDS011;48641;51.676;5.808;2023-01-29T03:46:29;6.70;;;3.13;;
62582;SDS011;48641;51.676;5.808;2023-01-29T03:49:05;7.05;;;3.30;;
62582;SDS011;48641;51.676;5.808;2023-01-29T03:51:54;6.55;;;3.03;;
62582;SDS011;48641;51.676;5.808;2023-01-29T03:57:42;7.75;;;3.33;;
62582;SDS011;48641;51.676;5.808;2023-01-29T04:00:29;7.25;;;3.28;;
62582;SDS011;48641;51.676;5.808;2023-01-29T04:03:15;8.13;;;3.42;;
62582;SDS011;48641;51.676;5.808;2023-01-29T04:05:50;7.15;;;3.40;;
62582;SDS011;48641;51.676;5.808;2023-01-29T04:08:26;7.95;;;3.30;;
62582;SDS011;48641;51.676;5.808;2023-01-29T04:10:55;8.02;;;3.25;;
62582;SDS011;48641;51.676;5.808;2023-01-29T04:13:25;7.68;;;3.45;;
62582;SDS011;48641;51.676;5.808;2023-01-29T04:15:57;8.23;;;3.30;;
62582;SDS011;48641;51.676;5.808;2023-01-29T04:18:24;7.15;;;3.30;;
62582;SDS011;48641;51.676;5.808;2023-01-29T04:20:50;7.60;;;3.03;;
62582;SDS011;48641;51.676;5.808;2023-01-29T04:23:23;7.68;;;3.50;;
62582;SDS011;48641;51.676;5.808;2023-01-29T04:25:52;8.55;;;3.90;;
62582;SDS011;48641;51.676;5.808;2023-01-29T04:28:44;8.20;;;3.78;;
62582;SDS011;48641;51.676;5.808;2023-01-29T04:31:38;7.97;;;3.70;;
62582;SDS011;48641;51.676;5.808;2023-01-29T04:34:15;7.72;;;3.30;;
62582;SDS011;48641;51.676;5.808;2023-01-29T04:40:07;7.88;;;3.45;;
62582;SDS011;48641;51.676;5.808;2023-01-29T04:43:07;8.38;;;3.83;;
62582;SDS011;48641;51.676;5.808;2023-01-29T04:48:29;10.02;;;3.83;;
62582;SDS011;48641;51.676;5.808;2023-01-29T04:51:24;9.18;;;4.10;;
62582;SDS011;48641;51.676;5.808;2023-01-29T04:54:21;9.77;;;3.85;;
62582;SDS011;48641;51.676;5.808;2023-01-29T04:59:32;9.10;;;4.45;;
62582;SDS011;48641;51.676;5.808;2023-01-29T05:02:05;9.60;;;4.20;;
62582;SDS011;48641;51.676;5.808;2023-01-29T05:04:33;9.68;;;4.55;;
62582;SDS011;48641;51.676;5.808;2023-01-29T05:07:03;9.32;;;4.40;;
62582;SDS011;48641;51.676;5.808;2023-01-29T05:09:32;9.02;;;4.68;;
62582;SDS011;48641;51.676;5.808;2023-01-29T05:11:59;9.15;;;4.82;;
62582;SDS011;48641;51.676;5.808;2023-01-29T05:14:26;9.77;;;4.28;;
62582;SDS011;48641;51.676;5.808;2023-01-29T05:16:54;9.32;;;4.57;;
62582;SDS011;48641;51.676;5.808;2023-01-29T05:19:22;9.27;;;4.38;;
62582;SDS011;48641;51.676;5.808;2023-01-29T05:21:48;11.32;;;5.15;;
62582;SDS011;48641;51.676;5.808;2023-01-29T05:24:18;9.85;;;4.78;;
62582;SDS011;48641;51.676;5.808;2023-01-29T05:26:47;8.95;;;4.53;;
62582;SDS011;48641;51.676;5.808;2023-01-29T05:29:32;8.77;;;4.35;;
62582;SDS011;48641;51.676;5.808;2023-01-29T05:31:58;9.15;;;4.40;;
62582;SDS011;48641;51.676;5.808;2023-01-29T05:34:24;10.07;;;4.63;;
62582;SDS011;48641;51.676;5.808;2023-01-29T05:36:50;9.05;;;4.15;;
62582;SDS011;48641;51.676;5.808;2023-01-29T05:39:15;10.35;;;4.80;;
62582;SDS011;48641;51.676;5.808;2023-01-29T05:41:41;10.52;;;4.90;;
62582;SDS011;48641;51.676;5.808;2023-01-29T05:44:08;8.63;;;4.03;;
62582;SDS011;48641;51.676;5.808;2023-01-29T05:46:34;10.40;;;4.80;;
62582;SDS011;48641;51.676;5.808;2023-01-29T05:49:01;9.75;;;4.43;;
62582;SDS011;48641;51.676;5.808;2023-01-29T05:51:26;10.32;;;5.30;;
62582;SDS011;48641;51.676;5.808;2023-01-29T05:53:52;10.23;;;4.82;;
62582;SDS011;48641;51.676;5.808;2023-01-29T05:56:18;9.90;;;4.97;;
62582;SDS011;48641;51.676;5.808;2023-01-29T05:58:43;10.10;;;4.80;;
62582;SDS011;48641;51.676;5.808;2023-01-29T06:01:10;10.13;;;5.00;;
62582;SDS011;48641;51.676;5.808;2023-01-29T06:03:37;9.48;;;4.32;;
62582;SDS011;48641;51.676;5.808;2023-01-29T06:06:02;9.43;;;4.32;;
62582;SDS011;48641;51.676;5.808;2023-01-29T06:08:28;9.15;;;4.28;;
62582;SDS011;48641;51.676;5.808;2023-01-29T06:10:53;11.00;;;4.75;;
62582;SDS011;48641;51.676;5.808;2023-01-29T06:13:19;9.02;;;4.40;;
62582;SDS011;48641;51.676;5.808;2023-01-29T06:15:44;10.25;;;4.70;;
62582;SDS011;48641;51.676;5.808;2023-01-29T06:18:10;10.07;;;4.40;;
62582;SDS011;48641;51.676;5.808;2023-01-29T06:20:36;9.88;;;4.80;;
62582;SDS011;48641;51.676;5.808;2023-01-29T06:23:01;9.85;;;4.70;;
62582;SDS011;48641;51.676;5.808;2023-01-29T06:25:27;10.48;;;4.65;;
62582;SDS011;48641;51.676;5.808;2023-01-29T06:27:53;9.20;;;4.57;;
62582;SDS011;48641;51.676;5.808;2023-01-29T06:30:18;10.10;;;4.47;;
62582;SDS011;48641;51.676;5.808;2023-01-29T06:32:44;10.40;;;4.55;;
62582;SDS011;48641;51.676;5.808;2023-01-29T06:35:09;9.80;;;4.70;;
62582;SDS011;48641;51.676;5.808;2023-01-29T06:37:35;9.48;;;4.60;;
62582;SDS011;48641;51.676;5.808;2023-01-29T06:40:02;9.52;;;4.60;;
62582;SDS011;48641;51.676;5.808;2023-01-29T06:42:27;9.27;;;4.50;;
62582;SDS011;48641;51.676;5.808;2023-01-29T06:44:53;8.93;;;4.30;;
62582;SDS011;48641;51.676;5.808;2023-01-29T06:47:20;10.57;;;4.95;;
62582;SDS011;48641;51.676;5.808;2023-01-29T06:49:45;9.85;;;4.57;;
62582;SDS011;48641;51.676;5.808;2023-01-29T06:52:11;8.85;;;4.35;;
62582;SDS011;48641;51.676;5.808;2023-01-29T06:54:36;10.35;;;4.72;;
62582;SDS011;48641;51.676;5.808;2023-01-29T06:57:02;9.30;;;4.50;;
62582;SDS011;48641;51.676;5.808;2023-01-29T06:59:28;8.82;;;3.95;;
62582;SDS011;48641;51.676;5.808;2023-01-29T07:01:53;10.07;;;4.70;;
62582;SDS011;48641;51.676;5.808;2023-01-29T07:04:19;10.90;;;5.10;;
62582;SDS011;48641;51.676;5.808;2023-01-29T07:06:44;8.60;;;4.10;;
62582;SDS011;48641;51.676;5.808;2023-01-29T07:09:10;9.50;;;4.63;;
62582;SDS011;48641;51.676;5.808;2023-01-29T07:11:37;8.82;;;4.10;;
62582;SDS011;48641;51.676;5.808;2023-01-29T07:14:03;10.30;;;4.53;;
62582;SDS011;48641;51.676;5.808;2023-01-29T07:16:29;9.95;;;4.63;;
62582;SDS011;48641;51.676;5.808;2023-01-29T07:18:55;10.82;;;4.82;;
62582;SDS011;48641;51.676;5.808;2023-01-29T07:21:21;9.05;;;4.28;;
62582;SDS011;48641;51.676;5.808;2023-01-29T07:23:47;9.93;;;5.00;;
62582;SDS011;48641;51.676;5.808;2023-01-29T07:26:12;9.82;;;4.97;;
62582;SDS011;48641;51.676;5.808;2023-01-29T07:28:38;9.95;;;4.65;;
62582;SDS011;48641;51.676;5.808;2023-01-29T07:31:05;10.05;;;4.57;;
62582;SDS011;48641;51.676;5.808;2023-01-29T07:33:31;9.52;;;4.70;;
62582;SDS011;48641;51.676;5.808;2023-01-29T07:35:57;10.27;;;4.68;;
62582;SDS011;48641;51.676;5.808;2023-01-29T07:38:22;9.55;;;4.55;;
62582;SDS011;48641;51.676;5.808;2023-01-29T07:40:48;8.80;;;4.63;;
62582;SDS011;48641;51.676;5.808;2023-01-29T07:43:15;10.63;;;4.97;;
62582;SDS011;48641;51.676;5.808;2023-01-29T07:45:41;10.05;;;4.53;;
62582;SDS011;48641;51.676;5.808;2023-01-29T07:48:08;9.10;;;4.38;;
62582;SDS011;48641;51.676;5.808;2023-01-29T07:50:35;9.48;;;4.60;;
62582;SDS011;48641;51.676;5.808;2023-01-29T07:53:01;9.63;;;4.90;;
62582;SDS011;48641;51.676;5.808;2023-01-29T07:55:27;9.52;;;5.07;;
62582;SDS011;48641;51.676;5.808;2023-01-29T07:58:00;9.50;;;4.43;;
62582;SDS011;48641;51.676;5.808;2023-01-29T08:00:27;11.80;;;5.00;;
62582;SDS011;48641;51.676;5.808;2023-01-29T08:02:53;9.57;;;4.75;;
62582;SDS011;48641;51.676;5.808;2023-01-29T08:05:25;10.25;;;5.05;;
62582;SDS011;48641;51.676;5.808;2023-01-29T08:07:52;10.50;;;4.70;;
62582;SDS011;48641;51.676;5.808;2023-01-29T08:10:18;10.00;;;4.57;;
62582;SDS011;48641;51.676;5.808;2023-01-29T08:12:43;9.02;;;4.60;;
62582;SDS011;48641;51.676;5.808;2023-01-29T08:15:09;9.77;;;4.90;;
62582;SDS011;48641;51.676;5.808;2023-01-29T08:17:35;10.27;;;4.68;;
62582;SDS011;48641;51.676;5.808;2023-01-29T08:20:03;9.20;;;4.75;;
62582;SDS011;48641;51.676;5.808;2023-01-29T08:22:30;9.45;;;4.55;;
62582;SDS011;48641;51.676;5.808;2023-01-29T08:24:56;10.48;;;5.22;;
62582;SDS011;48641;51.676;5.808;2023-01-29T08:27:22;11.50;;;4.82;;
62582;SDS011;48641;51.676;5.808;2023-01-29T08:29:47;10.43;;;4.90;;
62582;SDS011;48641;51.676;5.808;2023-01-29T08:32:13;9.48;;;4.65;;
62582;SDS011;48641;51.676;5.808;2023-01-29T08:34:38;9.30;;;4.43;;
62582;SDS011;48641;51.676;5.808;2023-01-29T08:37:04;12.48;;;5.63;;
62582;SDS011;48641;51.676;5.808;2023-01-29T08:39:30;10.45;;;4.88;;
62582;SDS011;48641;51.676;5.808;2023-01-29T08:41:55;10.73;;;5.47;;
62582;SDS011;48641;51.676;5.808;2023-01-29T08:44:21;9.77;;;4.55;;
62582;SDS011;48641;51.676;5.808;2023-01-29T08:46:46;11.30;;;5.05;;
62582;SDS011;48641;51.676;5.808;2023-01-29T08:49:12;9.80;;;5.28;;
62582;SDS011;48641;51.676;5.808;2023-01-29T08:51:37;10.50;;;5.43;;
62582;SDS011;48641;51.676;5.808;2023-01-29T08:54:03;10.75;;;4.78;;
62582;SDS011;48641;51.676;5.808;2023-01-29T08:56:29;9.52;;;4.70;;
62582;SDS011;48641;51.676;5.808;2023-01-29T08:58:54;9.77;;;4.63;;
62582;SDS011;48641;51.676;5.808;2023-01-29T09:01:20;10.30;;;5.03;;
62582;SDS011;48641;51.676;5.808;2023-01-29T09:03:45;10.68;;;4.93;;
62582;SDS011;48641;51.676;5.808;2023-01-29T09:06:12;10.20;;;4.90;;
62582;SDS011;48641;51.676;5.808;2023-01-29T09:08:39;10.90;;;5.13;;
62582;SDS011;48641;51.676;5.808;2023-01-29T09:11:05;10.40;;;5.00;;
62582;SDS011;48641;51.676;5.808;2023-01-29T09:13:31;11.65;;;5.22;;
62582;SDS011;48641;51.676;5.808;2023-01-29T09:15:57;11.73;;;5.00;;
62582;SDS011;48641;51.676;5.808;2023-01-29T09:18:27;10.60;;;5.05;;
62582;SDS011;48641;51.676;5.808;2023-01-29T09:20:53;11.73;;;5.20;;
62582;SDS011;48641;51.676;5.808;2023-01-29T09:23:19;10.95;;;4.78;;
62582;SDS011;48641;51.676;5.808;2023-01-29T09:25:45;10.77;;;5.07;;
62582;SDS011;48641;51.676;5.808;2023-01-29T09:28:11;10.45;;;5.15;;
62582;SDS011;48641;51.676;5.808;2023-01-29T09:30:37;11.38;;;5.30;;
62582;SDS011;48641;51.676;5.808;2023-01-29T09:33:03;9.95;;;4.95;;
62582;SDS011;48641;51.676;5.808;2023-01-29T09:35:29;11.23;;;5.32;;
62582;SDS011;48641;51.676;5.808;2023-01-29T09:37:55;14.13;;;5.65;;
62582;SDS011;48641;51.676;5.808;2023-01-29T09:40:25;14.90;;;6.20;;
62582;SDS011;48641;51.676;5.808;2023-01-29T09:43:12;11.38;;;5.40;;
62582;SDS011;48641;51.676;5.808;2023-01-29T09:48:30;12.27;;;6.18;;
62582;SDS011;48641;51.676;5.808;2023-01-29T09:50:58;12.70;;;5.82;;
62582;SDS011;48641;51.676;5.808;2023-01-29T09:53:31;10.75;;;4.97;;
62582;SDS011;48641;51.676;5.808;2023-01-29T09:56:20;11.63;;;5.20;;
62582;SDS011;48641;51.676;5.808;2023-01-29T09:58:52;11.82;;;5.35;;
62582;SDS011;48641;51.676;5.808;2023-01-29T10:01:23;11.23;;;5.40;;
62582;SDS011;48641;51.676;5.808;2023-01-29T10:16:06;12.25;;;5.47;;
62582;SDS011;48641;51.676;5.808;2023-01-29T10:24:40;12.00;;;5.43;;
62582;SDS011;48641;51.676;5.808;2023-01-29T10:27:21;11.00;;;5.10;;
62582;SDS011;48641;51.676;5.808;2023-01-29T10:29:47;11.68;;;5.13;;
62582;SDS011;48641;51.676;5.808;2023-01-29T10:35:12;10.27;;;4.70;;
62582;SDS011;48641;51.676;5.808;2023-01-29T10:37:53;11.23;;;5.60;;
62582;SDS011;48641;51.676;5.808;2023-01-29T10:43:16;10.98;;;4.78;;
62582;SDS011;48641;51.676;5.808;2023-01-29T10:45:52;12.93;;;5.35;;
62582;SDS011;48641;51.676;5.808;2023-01-29T10:56:49;9.82;;;4.80;;
62582;SDS011;48641;51.676;5.808;2023-01-29T11:02:12;9.77;;;4.90;;
62582;SDS011;48641;51.676;5.808;2023-01-29T11:04:43;9.75;;;4.78;;
62582;SDS011;48641;51.676;5.808;2023-01-29T11:07:10;11.57;;;5.20;;
62582;SDS011;48641;51.676;5.808;2023-01-29T11:12:09;10.85;;;5.05;;
62582;SDS011;48641;51.676;5.808;2023-01-29T11:14:45;10.07;;;5.03;;
62582;SDS011;48641;51.676;5.808;2023-01-29T11:17:21;9.45;;;4.45;;
62582;SDS011;48641;51.676;5.808;2023-01-29T11:19:48;9.63;;;4.60;;
62582;SDS011;48641;51.676;5.808;2023-01-29T11:22:20;11.38;;;4.85;;
62582;SDS011;48641;51.676;5.808;2023-01-29T11:27:45;11.38;;;5.32;;
62582;SDS011;48641;51.676;5.808;2023-01-29T11:33:10;9.27;;;4.60;;
62582;SDS011;48641;51.676;5.808;2023-01-29T11:35:44;10.07;;;5.20;;
62582;SDS011;48641;51.676;5.808;2023-01-29T11:38:24;10.75;;;5.35;;
62582;SDS011;48641;51.676;5.808;2023-01-29T11:40:50;13.18;;;5.45;;
62582;SDS011;48641;51.676;5.808;2023-01-29T11:45:45;9.87;;;4.47;;
62582;SDS011;48641;51.676;5.808;2023-01-29T11:48:16;12.30;;;5.10;;
62582;SDS011;48641;51.676;5.808;2023-01-29T11:50:57;13.90;;;5.25;;
62582;SDS011;48641;51.676;5.808;2023-01-29T11:53:49;14.30;;;5.15;;
62582;SDS011;48641;51.676;5.808;2023-01-29T11:56:21;11.50;;;5.78;;
62582;SDS011;48641;51.676;5.808;2023-01-29T11:58:53;13.65;;;5.63;;
62582;SDS011;48641;51.676;5.808;2023-01-29T12:01:32;13.90;;;5.65;;
62582;SDS011;48641;51.676;5.808;2023-01-29T12:04:00;15.55;;;6.80;;
62582;SDS011;48641;51.676;5.808;2023-01-29T12:06:32;13.02;;;5.30;;
62582;SDS011;48641;51.676;5.808;2023-01-29T12:09:00;10.52;;;5.00;;
62582;SDS011;48641;51.676;5.808;2023-01-29T12:11:33;16.17;;;5.82;;
62582;SDS011;48641;51.676;5.808;2023-01-29T12:14:00;14.38;;;5.70;;
62582;SDS011;48641;51.676;5.808;2023-01-29T12:16:35;15.33;;;7.47;;
62582;SDS011;48641;51.676;5.808;2023-01-29T12:19:19;16.30;;;6.82;;
62582;SDS011;48641;51.676;5.808;2023-01-29T12:21:57;21.58;;;7.70;;
62582;SDS011;48641;51.676;5.808;2023-01-29T12:27:27;20.33;;;7.47;;
62582;SDS011;48641;51.676;5.808;2023-01-29T12:32:42;15.57;;;6.80;;
62582;SDS011;48641;51.676;5.808;2023-01-29T12:35:20;20.92;;;6.43;;
62582;SDS011;48641;51.676;5.808;2023-01-29T12:38:09;18.50;;;7.82;;
62582;SDS011;48641;51.676;5.808;2023-01-29T12:40:44;19.30;;;5.75;;
62582;SDS011;48641;51.676;5.808;2023-01-29T12:46:02;18.60;;;6.88;;
62582;SDS011;48641;51.676;5.808;2023-01-29T12:48:33;19.95;;;7.95;;
62582;SDS011;48641;51.676;5.808;2023-01-29T12:51:10;14.13;;;5.55;;
62582;SDS011;48641;51.676;5.808;2023-01-29T12:56:45;13.77;;;5.40;;
62582;SDS011;48641;51.676;5.808;2023-01-29T12:59:35;15.73;;;6.20;;
62582;SDS011;48641;51.676;5.808;2023-01-29T13:05:04;16.08;;;6.68;;
62582;SDS011;48641;51.676;5.808;2023-01-29T13:07:42;13.30;;;6.78;;
62582;SDS011;48641;51.676;5.808;2023-01-29T13:10:14;12.93;;;6.18;;
62582;SDS011;48641;51.676;5.808;2023-01-29T13:12:50;12.45;;;5.32;;
62582;SDS011;48641;51.676;5.808;2023-01-29T13:15:34;12.63;;;5.38;;
62582;SDS011;48641;51.676;5.808;2023-01-29T13:21:28;13.68;;;5.18;;
62582;SDS011;48641;51.676;5.808;2023-01-29T13:24:02;11.18;;;5.93;;
62582;SDS011;48641;51.676;5.808;2023-01-29T13:26:33;10.52;;;5.55;;
62582;SDS011;48641;51.676;5.808;2023-01-29T13:28:59;15.00;;;6.18;;
62582;SDS011;48641;51.676;5.808;2023-01-29T13:36:32;10.35;;;5.00;;
62582;SDS011;48641;51.676;5.808;2023-01-29T13:39:06;11.32;;;5.53;;
62582;SDS011;48641;51.676;5.808;2023-01-29T13:41:40;11.30;;;5.20;;
62582;SDS011;48641;51.676;5.808;2023-01-29T13:44:16;11.15;;;5.70;;
62582;SDS011;48641;51.676;5.808;2023-01-29T13:47:06;10.18;;;4.85;;
62582;SDS011;48641;51.676;5.808;2023-01-29T13:49:42;9.15;;;4.97;;
62582;SDS011;48641;51.676;5.808;2023-01-29T13:52:16;9.88;;;4.95;;
62582;SDS011;48641;51.676;5.808;2023-01-29T13:54:49;10.95;;;5.00;;
62582;SDS011;48641;51.676;5.808;2023-01-29T14:02:46;11.15;;;5.10;;
62582;SDS011;48641;51.676;5.808;2023-01-29T14:10:37;9.82;;;4.72;;
62582;SDS011;48641;51.676;5.808;2023-01-29T14:16:25;9.98;;;5.25;;
62582;SDS011;48641;51.676;5.808;2023-01-29T14:18:58;11.68;;;5.15;;
62582;SDS011;48641;51.676;5.808;2023-01-29T14:21:28;10.77;;;4.60;;
62582;SDS011;48641;51.676;5.808;2023-01-29T14:24:18;9.45;;;4.70;;
62582;SDS011;48641;51.676;5.808;2023-01-29T14:26:44;10.25;;;4.93;;
62582;SDS011;48641;51.676;5.808;2023-01-29T14:31:46;10.23;;;4.50;;
62582;SDS011;48641;51.676;5.808;2023-01-29T14:36:55;11.18;;;5.10;;
62582;SDS011;48641;51.676;5.808;2023-01-29T14:39:26;11.93;;;5.97;;
62582;SDS011;48641;51.676;5.808;2023-01-29T14:42:01;13.02;;;5.70;;
62582;SDS011;48641;51.676;5.808;2023-01-29T14:47:19;9.90;;;5.07;;
62582;SDS011;48641;51.676;5.808;2023-01-29T14:52:17;10.07;;;5.25;;
62582;SDS011;48641;51.676;5.808;2023-01-29T14:54:50;11.07;;;5.20;;
62582;SDS011;48641;51.676;5.808;2023-01-29T14:57:19;10.40;;;5.30;;
62582;SDS011;48641;51.676;5.808;2023-01-29T15:02:24;9.60;;;4.82;;
62582;SDS011;48641;51.676;5.808;2023-01-29T15:05:00;10.27;;;5.10;;
62582;SDS011;48641;51.676;5.808;2023-01-29T15:12:32;10.23;;;4.88;;
62582;SDS011;48641;51.676;5.808;2023-01-29T15:15:38;11.30;;;5.38;;
62582;SDS011;48641;51.676;5.808;2023-01-29T15:18:27;9.43;;;4.97;;
62582;SDS011;48641;51.676;5.808;2023-01-29T15:21:02;10.60;;;5.13;;
62582;SDS011;48641;51.676;5.808;2023-01-29T15:23:32;10.50;;;5.18;;
62582;SDS011;48641;51.676;5.808;2023-01-29T15:25:59;9.85;;;4.90;;
62582;SDS011;48641;51.676;5.808;2023-01-29T15:28:27;15.02;;;5.35;;
62582;SDS011;48641;51.676;5.808;2023-01-29T15:30:58;11.07;;;5.13;;
62582;SDS011;48641;51.676;5.808;2023-01-29T15:33:25;11.65;;;5.38;;
62582;SDS011;48641;51.676;5.808;2023-01-29T15:36:15;11.27;;;5.65;;
62582;SDS011;48641;51.676;5.808;2023-01-29T15:38:44;9.80;;;5.13;;
62582;SDS011;48641;51.676;5.808;2023-01-29T15:41:17;11.82;;;5.57;;
62582;SDS011;48641;51.676;5.808;2023-01-29T15:43:45;10.40;;;5.20;;
62582;SDS011;48641;51.676;5.808;2023-01-29T15:46:19;11.18;;;5.97;;
62582;SDS011;48641;51.676;5.808;2023-01-29T15:48:59;10.80;;;5.25;;
62582;SDS011;48641;51.676;5.808;2023-01-29T15:51:30;10.63;;;4.85;;
62582;SDS011;48641;51.676;5.808;2023-01-29T15:54:02;11.00;;;5.65;;
62582;SDS011;48641;51.676;5.808;2023-01-29T15:56:32;11.25;;;5.55;;
62582;SDS011;48641;51.676;5.808;2023-01-29T15:59:01;10.52;;;5.50;;
62582;SDS011;48641;51.676;5.808;2023-01-29T16:01:30;10.13;;;4.80;;
62582;SDS011;48641;51.676;5.808;2023-01-29T16:03:56;11.30;;;5.95;;
62582;SDS011;48641;51.676;5.808;2023-01-29T16:06:27;11.45;;;5.47;;
62582;SDS011;48641;51.676;5.808;2023-01-29T16:08:58;11.00;;;5.55;;
62582;SDS011;48641;51.676;5.808;2023-01-29T16:11:24;11.43;;;5.50;;
62582;SDS011;48641;51.676;5.808;2023-01-29T16:13:49;11.60;;;5.20;;
62582;SDS011;48641;51.676;5.808;2023-01-29T16:16:23;11.32;;;5.20;;
62582;SDS011;48641;51.676;5.808;2023-01-29T16:18:51;10.90;;;5.30;;
62582;SDS011;48641;51.676;5.808;2023-01-29T16:21:27;11.80;;;5.75;;
62582;SDS011;48641;51.676;5.808;2023-01-29T16:24:09;10.98;;;5.50;;
62582;SDS011;48641;51.676;5.808;2023-01-29T16:26:41;10.63;;;5.43;;
62582;SDS011;48641;51.676;5.808;2023-01-29T16:29:14;12.20;;;5.68;;
62582;SDS011;48641;51.676;5.808;2023-01-29T16:31:43;12.40;;;5.65;;
62582;SDS011;48641;51.676;5.808;2023-01-29T16:34:20;10.40;;;4.80;;
62582;SDS011;48641;51.676;5.808;2023-01-29T16:36:50;10.90;;;5.38;;
62582;SDS011;48641;51.676;5.808;2023-01-29T16:39:20;11.05;;;5.80;;
62582;SDS011;48641;51.676;5.808;2023-01-29T16:44:39;11.45;;;5.50;;
62582;SDS011;48641;51.676;5.808;2023-01-29T16:47:13;11.95;;;5.45;;
62582;SDS011;48641;51.676;5.808;2023-01-29T16:49:52;11.07;;;5.20;;
62582;SDS011;48641;51.676;5.808;2023-01-29T16:52:21;11.52;;;6.03;;
62582;SDS011;48641;51.676;5.808;2023-01-29T16:54:49;12.68;;;5.47;;
62582;SDS011;48641;51.676;5.808;2023-01-29T16:57:20;10.75;;;5.40;;
62582;SDS011;48641;51.676;5.808;2023-01-29T16:59:48;11.35;;;5.20;;
62582;SDS011;48641;51.676;5.808;2023-01-29T17:02:24;11.32;;;5.55;;
62582;SDS011;48641;51.676;5.808;2023-01-29T17:04:52;12.05;;;5.70;;
62582;SDS011;48641;51.676;5.808;2023-01-29T17:07:23;9.88;;;5.60;;
62582;SDS011;48641;51.676;5.808;2023-01-29T17:09:50;10.88;;;5.28;;
62582;SDS011;48641;51.676;5.808;2023-01-29T17:14:53;11.38;;;5.10;;
62582;SDS011;48641;51.676;5.808;2023-01-29T17:17:21;10.13;;;5.07;;
62582;SDS011;48641;51.676;5.808;2023-01-29T17:19:52;10.27;;;5.32;;
62582;SDS011;48641;51.676;5.808;2023-01-29T17:22:17;12.30;;;5.35;;
62582;SDS011;48641;51.676;5.808;2023-01-29T17:24:43;10.65;;;5.13;;
62582;SDS011;48641;51.676;5.808;2023-01-29T17:27:19;11.95;;;5.82;;
62582;SDS011;48641;51.676;5.808;2023-01-29T17:29:46;12.85;;;5.47;;
62582;SDS011;48641;51.676;5.808;2023-01-29T17:32:12;11.07;;;5.40;;